Impacts METAR Board
IDs:

KIAD - Washington/Dulles In, VA, US

Updated at: 1700 UTC 23 Jul 2018
Potential Impact None Slight Moderate High
Time 23/05Z 23/06Z 23/07Z 23/08Z 23/09Z 23/10Z 23/11Z 23/12Z 23/13Z 23/14Z 23/15Z 23/16Z 23/17Z
Temp73 73 73 73 75 75 75 74 74 75 77 78 81
Dewpt72 72 73 72 74 74 75 72 73 73 73 73 73
Altim29.88 29.87 29.85 29.86 29.87 29.89 29.92 29.94 29.95 29.96 29.98 29.98 29.96
VIS10 10 8 10 10 10 1 6 10 10 10 10 10
CIG10 7 6 21 24 45 10 35 28 12 13 22 28
CoverOVCOVCOVCOVCOVCOVCOVCBKNBKNOVCOVCOVCOVC
FltCatMVFRIFRIFRMVFRMVFRVFRIFRVFRMVFRMVFRMVFRMVFRMVFR
WX-----RA------+TSRA BR-RA BR---RA------
WDir60040210130130160150150150140150140
WSpd5 0 4 3 6 6 7 8 8 6 9 7 13
WGst-- -- -- -- -- -- 14 -- -- -- -- -- 19
Raw hourly METARs
KIAD 230452Z 06005KT 10SM FEW008 BKN010 OVC020 23/22 A2988 RMK AO2 SLP114 LTG DSNT E T02280222 402670156 $
KIAD 230552Z 00000KT 10SM BKN007 OVC022 23/22 A2987 RMK AO2 TSB16E35 SLP113 LTG DSNT N 60000 T02280222 10239 20217 58001 $
KIAD 230652Z 04004KT 8SM -RA BKN006 OVC012 23/23 A2985 RMK AO2 RAB26 SLP106 P0004 T02280228 $
KIAD 230752Z 21003KT 10SM SCT005 BKN021 OVC100 23/22 A2986 RMK AO2 RAE26 TSB23E48 SLP110 P0010 T02280222 $
KIAD 230852Z 13006KT 10SM FEW005 SCT012 OVC024 24/23 A2987 RMK AO2 SLP111 60014 T02390233 55002 $
KIAD 230952Z 13006KT 10SM SCT024 BKN045 BKN070 OVC220 24/23 A2989 RMK AO2 SLP118 T02390233 $
KIAD 231103Z 16007G14KT 1SM R01R/P6000FT +TSRA BR BKN010 BKN030CB OVC045 24/24 A2992 RMK AO2 OCNL LTGIC S TS S MOV N P0004 T02390239 $
KIAD 231152Z 15008KT 6SM -RA BR FEW020 BKN035 BKN090 BKN130 23/22 A2994 RMK AO2 TSE41 SLP134 TS MOV N P0028 60042 70050 T02330222 10239 20228 53023
KIAD 231252Z 15008KT 10SM SCT009 BKN028 BKN110 23/23 A2995 RMK AO2 RAE1154 SLP140 P0000 T02330228
KIAD 231352Z 15006KT 10SM -RA BKN012 BKN090 OVC120 24/23 A2996 RMK AO2 RAB20 SLP143 P0000 T02390228
KIAD 231452Z 14009KT 10SM BKN013 BKN022 OVC100 25/23 A2998 RMK AO2 RAE16 SLP148 P0000 60000 T02500228 51014
KIAD 231552Z 15007KT 10SM BKN022 OVC028 26/23 A2998 RMK AO2 SLP148 T02560228
KIAD 231652Z 14013G19KT 10SM SCT020 BKN028 OVC065 27/23 A2996 RMK AO2 RAB12E23 SLP143 P0000 T02720228



Page loaded:  17:30 UTC  |   10:30 AM Pacific  |   11:30 AM Mountain  |   12:30 PM Central  |   01:30 PM Eastern

 

ADVISORIES

FORECASTS

FORECASTS

OBSERVATIONS

USER TOOLS

ABOUT US